createdAt,value
2019-04-05T00:01:15.534Z,94892.76
2019-04-05T00:03:42.262Z,94896.55
2019-04-05T00:06:08.997Z,94889.31
2019-04-05T00:08:35.703Z,94883.44
2019-04-05T00:11:02.328Z,94878.41
2019-04-05T00:13:29.057Z,94885.86
2019-04-05T00:15:55.767Z,94887.45
2019-04-05T00:18:22.503Z,94896.77
2019-04-05T00:20:49.106Z,94892.20
2019-04-05T00:23:15.767Z,94895.36
2019-04-05T00:25:42.492Z,94901.77
2019-04-05T00:28:09.232Z,94894.03
2019-04-05T00:30:35.864Z,94888.63
2019-04-05T00:33:02.598Z,94893.16
2019-04-05T00:35:29.311Z,94894.98
2019-04-05T00:37:56.057Z,94906.23
2019-04-05T00:40:22.671Z,94903.31
2019-04-05T00:42:49.324Z,94913.12
2019-04-05T00:45:27.610Z,94917.90
2019-04-05T00:47:44.575Z,94914.91
2019-04-05T00:50:11.201Z,94914.67
2019-04-05T00:52:37.949Z,94921.59
2019-04-05T00:55:06.144Z,94920.50
2019-04-05T00:57:33.296Z,94918.05
2019-04-05T01:00:00.063Z,94910.56
2019-04-05T01:02:26.692Z,94905.22
2019-04-05T01:04:53.281Z,94911.16
2019-04-05T01:07:19.897Z,94907.92
2019-04-05T01:09:46.487Z,94904.73
2019-04-05T01:12:13.109Z,94898.89
2019-04-05T01:14:40.125Z,94905.33
2019-04-05T01:17:06.723Z,94913.37
2019-04-05T01:19:33.647Z,94916.03
2019-04-05T01:22:00.240Z,94923.23
2019-04-05T01:24:26.832Z,94923.77
2019-04-05T01:26:53.455Z,94920.57
2019-04-05T01:29:20.178Z,94919.16
2019-04-05T01:31:46.765Z,94924.72
2019-04-05T01:34:13.384Z,94924.72
2019-04-05T01:36:39.980Z,94929.84
2019-04-05T01:39:06.695Z,94933.89
2019-04-05T01:41:33.282Z,94930.41
2019-04-05T01:43:59.890Z,94936.03
2019-04-05T01:46:26.486Z,94934.70
2019-04-05T01:48:53.118Z,94937.33
2019-04-05T01:51:19.722Z,94940.80
2019-04-05T01:53:46.351Z,94939.51
2019-04-05T01:56:12.983Z,94935.75
2019-04-05T01:58:39.581Z,94941.33
2019-04-05T02:01:06.190Z,94933.53
2019-04-05T02:03:32.768Z,94931.66
2019-04-05T02:05:59.382Z,94940.20
2019-04-05T02:08:25.977Z,94946.08
2019-04-05T02:10:52.592Z,94946.88
2019-04-05T02:13:19.173Z,94946.77
2019-04-05T02:15:45.787Z,94945.93
2019-04-05T02:18:12.389Z,94953.86
2019-04-05T02:20:38.998Z,94959.97
2019-04-05T02:23:05.691Z,94960.48
2019-04-05T02:25:32.294Z,94958.06
2019-04-05T02:27:58.901Z,94958.06
2019-04-05T02:30:25.714Z,94954.55
2019-04-05T02:32:52.415Z,94947.06
2019-04-05T02:35:19.107Z,94947.91
2019-04-05T02:37:45.714Z,94945.00
2019-04-05T02:40:14.302Z,94939.14
2019-04-05T02:42:41.041Z,94944.19
2019-04-05T02:45:07.729Z,94950.30
2019-04-05T02:47:34.460Z,94942.82
2019-04-05T02:50:01.161Z,94953.73
2019-04-05T02:52:27.778Z,94949.49
2019-04-05T02:54:54.362Z,94950.86
2019-04-05T02:57:21.040Z,94955.36
2019-04-05T02:59:47.657Z,94951.59
2019-04-05T03:02:14.228Z,94956.05
2019-04-05T03:04:40.856Z,94960.82
2019-04-05T03:07:07.557Z,94961.10
2019-04-05T03:09:34.216Z,94959.20
2019-04-05T03:12:00.808Z,94957.06
2019-04-05T03:14:27.524Z,94954.63
2019-04-05T03:16:54.138Z,94962.06
2019-04-05T03:19:21.307Z,94969.78
2019-04-05T03:21:51.163Z,94976.21
2019-04-05T03:24:18.555Z,94974.64
2019-04-05T03:26:47.420Z,94973.02
2019-04-05T03:29:14.014Z,94984.45
2019-04-05T03:31:40.655Z,94982.11
2019-04-05T03:34:07.348Z,94971.92
2019-04-05T03:36:33.983Z,94975.32
2019-04-05T03:39:00.674Z,94977.14
2019-04-05T03:41:27.377Z,94998.16
2019-04-05T03:43:53.972Z,94999.97
2019-04-05T03:46:20.697Z,94996.77
2019-04-05T03:48:47.391Z,94984.48
2019-04-05T03:51:14.026Z,94993.53
2019-04-05T03:53:40.725Z,94988.76
2019-04-05T03:56:07.347Z,95003.20
2019-04-05T03:58:34.045Z,95001.34
2019-04-05T04:01:00.648Z,94996.58
2019-04-05T04:03:27.277Z,94996.09
2019-04-05T04:05:53.982Z,95011.86
2019-04-05T04:08:23.414Z,95008.34
2019-04-05T04:10:49.543Z,95006.68
2019-04-05T04:13:16.261Z,95004.82
2019-04-05T04:15:42.953Z,94994.91
2019-04-05T04:18:09.556Z,94994.11
2019-04-05T04:20:37.733Z,94985.16
2019-04-05T04:23:04.417Z,94987.22
2019-04-05T04:25:31.011Z,94979.43
2019-04-05T04:27:57.611Z,94981.68
2019-04-05T04:30:24.217Z,94981.75
2019-04-05T04:32:50.839Z,94983.37
2019-04-05T04:35:17.564Z,94979.75
2019-04-05T04:37:44.247Z,94983.50
2019-04-05T04:40:11.385Z,94995.95
2019-04-05T04:42:37.986Z,94988.81
2019-04-05T04:45:11.920Z,94991.94
2019-04-05T04:47:33.122Z,94990.45
2019-04-05T04:49:59.725Z,94993.04
2019-04-05T04:52:26.891Z,94992.58
2019-04-05T04:54:53.487Z,94996.04
2019-04-05T04:57:20.080Z,95000.36
2019-04-05T04:59:46.792Z,94994.11
2019-04-05T05:02:13.395Z,94994.47
2019-04-05T05:04:40.044Z,95001.23
2019-04-05T05:07:06.675Z,94996.02
2019-04-05T05:09:33.311Z,94987.13
2019-04-05T05:11:59.906Z,94989.72
2019-04-05T05:14:26.519Z,94992.82
2019-04-05T05:16:53.144Z,95000.48
2019-04-05T05:19:19.834Z,95006.17
2019-04-05T05:21:46.425Z,95002.44
2019-04-05T05:24:13.058Z,95008.09
2019-04-05T05:26:39.733Z,94998.95
2019-04-05T05:29:06.359Z,95001.37
2019-04-05T05:31:33.035Z,95002.41
2019-04-05T05:33:59.655Z,95001.01
2019-04-05T05:36:26.370Z,95000.72
2019-04-05T05:38:53.080Z,95008.22
2019-04-05T05:41:19.692Z,95006.87
2019-04-05T05:43:46.299Z,95009.73
2019-04-05T05:46:12.911Z,95007.89
2019-04-05T05:48:39.510Z,95016.39
2019-04-05T05:51:06.220Z,95024.31
2019-04-05T05:53:32.823Z,95022.34
2019-04-05T05:55:59.448Z,95023.48
2019-04-05T05:58:26.542Z,95013.70
2019-04-05T06:00:53.300Z,95016.84
2019-04-05T06:03:19.941Z,95007.41
2019-04-05T06:05:46.546Z,95004.70
2019-04-05T06:08:13.162Z,95003.69
2019-04-05T06:10:39.773Z,94997.00
2019-04-05T06:13:07.273Z,95004.38
2019-04-05T06:15:37.389Z,95002.17
2019-04-05T06:18:04.896Z,94994.96
2019-04-05T06:20:31.492Z,94989.30
2019-04-05T06:22:58.112Z,94990.95
2019-04-05T06:25:24.837Z,95002.28
2019-04-05T06:27:51.506Z,94997.57
2019-04-05T06:30:18.146Z,94991.63
2019-04-05T06:32:44.854Z,94991.94
2019-04-05T06:35:11.468Z,94985.28
2019-04-05T06:37:38.068Z,94993.67
2019-04-05T06:40:05.045Z,94990.54
2019-04-05T06:42:31.894Z,94993.27
2019-04-05T06:44:58.573Z,94996.50
2019-04-05T06:47:25.336Z,94999.18
2019-04-05T06:49:52.030Z,94994.05
2019-04-05T06:52:18.645Z,94994.70
2019-04-05T06:54:45.338Z,95005.95
2019-04-05T06:57:12.065Z,94999.77
2019-04-05T06:59:38.692Z,94997.91
2019-04-05T07:02:05.441Z,94997.06
2019-04-05T07:04:32.180Z,94998.41
2019-04-05T07:06:58.793Z,94987.98
2019-04-05T07:09:25.420Z,94994.89
2019-04-05T07:11:52.126Z,94995.14
2019-04-05T07:14:18.729Z,95002.56
2019-04-05T07:16:45.349Z,95013.54
2019-04-05T07:19:12.005Z,95015.19
2019-04-05T07:21:38.703Z,95015.25
2019-04-05T07:24:05.293Z,95021.72
2019-04-05T07:26:31.923Z,95016.20
2019-04-05T07:28:58.635Z,95015.98
2019-04-05T07:31:25.353Z,95019.24
2019-04-05T07:33:51.967Z,95021.25
2019-04-05T07:36:18.673Z,95016.58
2019-04-05T07:38:45.287Z,95019.91
2019-04-05T07:41:11.863Z,95012.73
2019-04-05T07:43:38.493Z,95012.77
2019-04-05T07:46:05.108Z,95010.95
2019-04-05T07:48:43.879Z,95000.00
2019-04-05T07:51:00.225Z,95008.65
2019-04-05T07:53:26.833Z,95009.20
2019-04-05T07:55:53.431Z,95003.63
2019-04-05T07:58:20.068Z,94999.09
2019-04-05T08:00:53.237Z,95001.02
2019-04-05T08:03:20.159Z,94990.09
2019-04-05T08:05:47.461Z,94988.01
2019-04-05T08:08:17.524Z,94992.09
2019-04-05T08:10:44.219Z,94987.86
2019-04-05T08:13:10.836Z,94994.08
2019-04-05T08:15:37.528Z,94999.17
2019-04-05T08:18:04.159Z,94995.67
2019-04-05T08:20:30.765Z,94990.86
2019-04-05T08:22:57.395Z,94991.92
2019-04-05T08:25:24.008Z,94997.55
2019-04-05T08:27:50.602Z,94999.47
2019-04-05T08:30:17.242Z,94996.79
2019-04-05T08:32:43.842Z,95000.55
2019-04-05T08:35:10.444Z,94997.33
2019-04-05T08:37:37.060Z,94997.89
2019-04-05T08:40:03.949Z,94998.95
2019-04-05T08:42:30.552Z,94998.70
2019-04-05T08:44:57.169Z,95008.09
2019-04-05T08:47:23.770Z,95006.19
2019-04-05T08:49:50.503Z,95005.65
2019-04-05T08:52:17.228Z,95004.54
2019-04-05T08:54:43.856Z,95003.46
2019-04-05T08:57:10.478Z,95006.42
2019-04-05T08:59:37.174Z,94999.43
2019-04-05T09:02:03.788Z,95005.61
2019-04-05T09:04:30.397Z,95001.85
2019-04-05T09:06:57.048Z,94999.47
2019-04-05T09:09:23.739Z,94998.93
2019-04-05T09:11:50.354Z,95008.60
2019-04-05T09:14:17.054Z,95010.23
2019-04-05T09:16:43.677Z,95024.22
2019-04-05T09:19:22.720Z,95018.55
2019-04-05T09:21:40.555Z,95023.69
2019-04-05T09:24:07.339Z,95017.50
2019-04-05T09:26:34.048Z,95019.64
2019-04-05T09:29:00.657Z,95018.03
2019-04-05T09:31:27.290Z,95014.28
2019-04-05T09:33:53.979Z,95014.28
2019-04-05T09:36:22.183Z,95012.94
2019-04-05T09:38:48.798Z,95006.75
2019-04-05T09:41:15.393Z,95000.58
2019-04-05T09:43:42.005Z,94998.69
2019-04-05T09:46:08.615Z,94999.50
2019-04-05T09:48:35.255Z,94992.23
2019-04-05T09:51:01.953Z,94982.81
2019-04-05T09:53:28.553Z,94997.05
2019-04-05T09:55:55.266Z,94994.59
2019-04-05T09:58:21.871Z,94999.14
2019-04-05T10:00:48.515Z,94996.17
2019-04-05T10:03:15.217Z,94994.79
2019-04-05T10:05:41.828Z,94989.12
2019-04-05T10:08:08.439Z,94987.44
2019-04-05T10:10:35.072Z,94982.52
2019-04-05T10:13:01.672Z,94981.92
2019-04-05T10:15:28.385Z,94985.08
2019-04-05T10:17:55.037Z,94973.47
2019-04-05T10:20:21.714Z,94962.06
2019-04-05T10:22:48.320Z,94954.69
2019-04-05T10:25:14.869Z,94956.48
2019-04-05T10:27:41.480Z,94957.79
2019-04-05T10:30:08.591Z,94961.80
2019-04-05T10:32:35.582Z,94960.45
2019-04-05T10:35:02.312Z,94954.09
2019-04-05T10:37:28.918Z,94954.63
2019-04-05T10:39:55.620Z,94955.25
2019-04-05T10:42:29.599Z,94950.75
2019-04-05T10:44:56.206Z,94954.30
2019-04-05T10:47:22.801Z,94954.55
2019-04-05T10:50:01.695Z,94954.98
2019-04-05T10:52:17.936Z,94957.75
2019-04-05T10:54:49.088Z,94943.84
2019-04-05T10:57:18.823Z,94941.54
2019-04-05T10:59:45.585Z,94942.28
2019-04-05T11:02:12.199Z,94949.37
2019-04-05T11:04:38.915Z,94957.33
2019-04-05T11:07:05.614Z,94951.42
2019-04-05T11:09:32.243Z,94950.20
2019-04-05T11:11:58.888Z,94945.02
2019-04-05T11:14:25.579Z,94939.98
2019-04-05T11:16:58.265Z,94941.48
2019-04-05T11:19:20.684Z,94936.14
2019-04-05T11:21:48.473Z,94937.81
2019-04-05T11:24:15.816Z,94934.97
2019-04-05T11:26:42.525Z,94933.84
2019-04-05T11:29:09.151Z,94936.40
2019-04-05T11:31:35.770Z,94939.87
2019-04-05T11:34:02.366Z,94940.70
2019-04-05T11:36:28.990Z,94941.11
2019-04-05T11:38:55.606Z,94940.05
2019-04-05T11:41:22.457Z,94938.67
2019-04-05T11:43:49.084Z,94926.27
2019-04-05T11:46:18.063Z,94923.11
2019-04-05T11:48:44.210Z,94923.31
2019-04-05T11:51:11.024Z,94912.27
2019-04-05T11:53:37.721Z,94922.53
2019-04-05T11:56:14.397Z,94914.73
2019-04-05T11:58:32.841Z,94915.79
2019-04-05T12:01:11.115Z,94915.05
2019-04-05T12:03:38.601Z,94913.12
2019-04-05T12:06:05.218Z,94915.56
2019-04-05T12:08:31.939Z,94916.94
2019-04-05T12:10:58.559Z,94909.91
2019-04-05T12:13:25.174Z,94907.95
2019-04-05T12:15:51.858Z,94904.11
2019-04-05T12:18:19.687Z,94898.62
2019-04-05T12:20:52.249Z,94892.70
2019-04-05T12:23:15.078Z,94889.38
2019-04-05T12:25:41.783Z,94883.41
2019-04-05T12:28:10.576Z,94884.63
2019-04-05T12:30:37.751Z,94887.75
2019-04-05T12:33:13.988Z,94889.16
2019-04-05T12:35:32.872Z,94886.09
2019-04-05T12:37:59.482Z,94882.99
2019-04-05T12:40:26.127Z,94878.37
2019-04-05T12:42:53.196Z,94881.75
2019-04-05T12:45:19.930Z,94869.23
2019-04-05T12:47:46.556Z,94861.70
2019-04-05T12:50:14.538Z,94866.59
2019-04-05T12:52:41.810Z,94857.17
2019-04-05T12:55:13.135Z,94861.36
2019-04-05T12:57:39.742Z,94862.91
2019-04-05T13:00:07.126Z,94855.40
2019-04-05T13:02:34.222Z,94855.65
2019-04-05T13:05:00.940Z,94856.08
2019-04-05T13:07:27.581Z,94857.72
2019-04-05T13:09:55.106Z,94857.27
2019-04-05T13:12:21.994Z,94854.78
2019-04-05T13:14:48.619Z,94852.75
2019-04-05T13:17:15.319Z,94853.70
2019-04-05T13:19:42.027Z,94842.75
2019-04-05T13:22:08.634Z,94841.95
2019-04-05T13:24:35.236Z,94842.20
2019-04-05T13:27:02.175Z,94830.85
2019-04-05T13:29:28.939Z,94832.52
2019-04-05T13:31:55.604Z,94831.66
2019-04-05T13:34:25.636Z,94824.63
2019-04-05T13:36:50.730Z,94821.39
2019-04-05T13:39:17.354Z,94810.85
2019-04-05T13:41:44.067Z,94808.14
2019-04-05T13:44:10.793Z,94816.23
2019-04-05T13:46:39.071Z,94827.96
2019-04-05T13:49:05.962Z,94835.95
2019-04-05T13:51:32.660Z,94833.28
2019-04-05T13:53:59.269Z,94831.02
2019-04-05T13:56:25.876Z,94830.02
2019-04-05T13:58:52.492Z,94830.35
2019-04-05T14:01:20.735Z,94833.52
2019-04-05T14:03:48.498Z,94829.25
2019-04-05T14:06:16.144Z,94835.96
2019-04-05T14:08:42.729Z,94837.68
2019-04-05T14:11:10.458Z,94837.19
2019-04-05T14:13:42.180Z,94829.50
2019-04-05T14:16:06.353Z,94833.73
2019-04-05T14:18:33.014Z,94833.00
2019-04-05T14:20:59.626Z,94838.63
2019-04-05T14:23:26.233Z,94834.31
2019-04-05T14:25:52.863Z,94833.55
2019-04-05T14:28:19.570Z,94839.88
2019-04-05T14:30:46.216Z,94836.13
2019-04-05T14:33:12.821Z,94836.00
2019-04-05T14:35:39.427Z,94838.51
2019-04-05T14:38:06.090Z,94830.70
2019-04-05T14:40:33.098Z,94834.88
2019-04-05T14:42:59.916Z,94833.30
2019-04-05T14:45:26.520Z,94838.98
2019-04-05T14:47:53.223Z,94832.02
2019-04-05T14:50:19.821Z,94832.49
2019-04-05T14:52:49.342Z,94830.46
2019-04-05T14:55:14.768Z,94825.86
2019-04-05T14:57:41.415Z,94827.23
2019-04-05T15:00:08.341Z,94819.74
2019-04-05T15:02:34.971Z,94814.24
2019-04-05T15:05:01.601Z,94812.22
2019-04-05T15:07:28.303Z,94814.23
2019-04-05T15:09:55.783Z,94810.98
2019-04-05T15:12:22.444Z,94806.48
2019-04-05T15:14:49.136Z,94806.70
2019-04-05T15:17:15.748Z,94803.95
2019-04-05T15:19:42.360Z,94812.68
2019-04-05T15:22:11.668Z,94802.88
2019-04-05T15:24:37.511Z,94804.27
2019-04-05T15:27:04.315Z,94807.38
2019-04-05T15:29:30.984Z,94808.94
2019-04-05T15:31:57.701Z,94808.08
2019-04-05T15:34:28.147Z,94807.05
2019-04-05T15:36:52.782Z,94807.52
2019-04-05T15:39:19.396Z,94807.82
2019-04-05T15:41:46.003Z,94810.12
2019-04-05T15:44:12.710Z,94805.73
2019-04-05T15:46:39.332Z,94811.66
2019-04-05T15:49:05.948Z,94811.13
2019-04-05T15:51:35.728Z,94816.13
2019-04-05T15:54:02.363Z,94811.96
2019-04-05T15:56:29.046Z,94817.23
2019-04-05T15:58:55.684Z,94810.88
2019-04-05T16:01:22.289Z,94811.91
2019-04-05T16:03:49.036Z,94812.36
2019-04-05T16:06:15.662Z,94809.38
2019-04-05T16:08:42.451Z,94805.08
2019-04-05T16:11:09.094Z,94811.55
2019-04-05T16:13:36.555Z,94816.42
2019-04-05T16:16:03.152Z,94811.63
2019-04-05T16:18:29.780Z,94822.45
2019-04-05T16:20:56.427Z,94821.67
2019-04-05T16:23:23.114Z,94818.36
2019-04-05T16:25:49.748Z,94818.95
2019-04-05T16:28:16.344Z,94814.41
2019-04-05T16:30:42.958Z,94812.13
2019-04-05T16:33:09.548Z,94809.14
2019-04-05T16:35:36.158Z,94809.78
2019-04-05T16:38:02.958Z,94811.63
2019-04-05T16:40:31.307Z,94811.29
2019-04-05T16:43:02.785Z,94804.25
2019-04-05T16:45:26.627Z,94808.95
2019-04-05T16:47:53.231Z,94811.44
2019-04-05T16:50:21.336Z,94815.12
2019-04-05T16:52:48.151Z,94804.37
2019-04-05T16:55:14.676Z,94801.63
2019-04-05T16:57:41.347Z,94809.00
2019-04-05T17:00:08.678Z,94816.54
2019-04-05T17:02:35.293Z,94808.77
2019-04-05T17:05:01.900Z,94809.17
2019-04-05T17:07:28.506Z,94809.21
2019-04-05T17:09:55.113Z,94809.63
2019-04-05T17:12:21.857Z,94812.32
2019-04-05T17:14:48.463Z,94811.91
2019-04-05T17:17:15.116Z,94808.81
2019-04-05T17:19:41.809Z,94812.36
2019-04-05T17:22:08.491Z,94803.05
2019-04-05T17:24:35.152Z,94808.07
2019-04-05T17:27:01.757Z,94802.82
2019-04-05T17:29:28.383Z,94810.69
2019-04-05T17:31:55.014Z,94805.09
2019-04-05T17:34:21.751Z,94811.31
2019-04-05T17:36:48.532Z,94810.81
2019-04-05T17:39:15.166Z,94808.23
2019-04-05T17:41:41.868Z,94818.78
2019-04-05T17:44:08.482Z,94819.42
2019-04-05T17:46:35.196Z,94824.13
2019-04-05T17:49:01.817Z,94828.56
2019-04-05T17:51:28.521Z,94828.69
2019-04-05T17:53:55.149Z,94827.95
2019-04-05T17:56:21.868Z,94833.67
2019-04-05T17:58:48.506Z,94832.39
2019-04-05T18:01:15.346Z,94838.64
2019-04-05T18:03:42.009Z,94843.79
2019-04-05T18:06:08.678Z,94848.66
2019-04-05T18:08:35.361Z,94851.89
2019-04-05T18:11:02.074Z,94848.95
2019-04-05T18:13:28.802Z,94854.56
2019-04-05T18:15:55.525Z,94851.61
2019-04-05T18:18:22.151Z,94857.22
2019-04-05T18:20:48.873Z,94855.08
2019-04-05T18:23:24.907Z,94857.20
2019-04-05T18:25:44.210Z,94859.34
2019-04-05T18:28:10.888Z,94861.41
2019-04-05T18:30:37.520Z,94864.34
2019-04-05T18:33:04.238Z,94855.22
2019-04-05T18:35:30.969Z,94859.48
2019-04-05T18:37:57.699Z,94863.75
2019-04-05T18:40:24.401Z,94861.88
2019-04-05T18:42:51.110Z,94870.16
2019-04-05T18:45:17.878Z,94875.75
2019-04-05T18:47:44.620Z,94876.81
2019-04-05T18:50:11.323Z,94880.80
2019-04-05T18:52:37.961Z,94876.23
2019-04-05T18:55:05.562Z,94880.25
2019-04-05T18:57:32.280Z,94881.31
2019-04-05T18:59:59.004Z,94883.45
2019-04-05T19:02:25.719Z,94887.70
2019-04-05T19:04:52.341Z,94886.34
2019-04-05T19:07:18.992Z,94887.69
2019-04-05T19:09:45.721Z,94890.62
2019-04-05T19:12:12.473Z,94885.80
2019-04-05T19:14:39.168Z,94893.30
2019-04-05T19:17:05.764Z,94892.20
2019-04-05T19:19:32.430Z,94897.28
2019-04-05T19:21:59.087Z,94898.91
2019-04-05T19:24:25.717Z,94896.80
2019-04-05T19:26:52.411Z,94887.45
2019-04-05T19:29:19.037Z,94893.87
2019-04-05T19:49:05.401Z,94911.81
2019-04-05T19:51:32.009Z,94909.66
2019-04-05T19:54:01.410Z,94913.41
2019-04-05T19:56:27.259Z,94919.30
2019-04-05T19:58:53.967Z,94913.66
2019-04-05T20:01:23.158Z,94918.22
2019-04-05T20:03:49.784Z,94917.14
2019-04-05T20:06:20.673Z,94919.54
2019-04-05T20:08:47.781Z,94921.14
2019-04-05T20:11:14.504Z,94921.67
2019-04-05T20:13:41.102Z,94923.28
2019-04-05T20:16:07.749Z,94930.80
2019-04-05T20:18:34.435Z,94932.41
2019-04-05T20:21:01.068Z,94935.34
2019-04-05T20:23:27.678Z,94939.88
2019-04-05T20:25:54.328Z,94938.56
2019-04-05T20:28:21.039Z,94941.24
2019-04-05T20:30:47.744Z,94936.72
2019-04-05T20:33:14.372Z,94934.61
2019-04-05T20:35:41.001Z,94935.17
2019-04-05T20:38:07.739Z,94931.69
2019-04-05T20:40:34.450Z,94929.52
2019-04-05T20:43:01.177Z,94927.38
2019-04-05T20:45:27.789Z,94935.70
2019-04-05T20:47:54.402Z,94936.24
2019-04-05T20:50:21.009Z,94929.84
2019-04-05T20:52:47.740Z,94932.27
2019-04-05T20:55:15.356Z,94934.15
2019-04-05T20:57:42.000Z,94933.09
2019-04-05T21:00:09.826Z,94938.17
2019-04-05T21:02:36.469Z,94935.45
2019-04-05T21:05:03.393Z,94934.64
2019-04-05T21:07:30.028Z,94937.28
2019-04-05T21:09:56.665Z,94939.41
2019-04-05T21:12:23.279Z,94938.33
2019-04-05T21:14:49.990Z,94936.18
2019-04-05T21:17:16.606Z,94940.45
2019-04-05T21:22:32.807Z,94937.49
2019-04-05T21:24:59.431Z,94942.80
2019-04-05T21:27:26.111Z,94947.03
2019-04-05T21:29:52.762Z,94943.50
2019-04-05T21:32:19.457Z,94955.25
2019-04-05T21:34:46.177Z,94956.25
2019-04-05T21:37:12.804Z,94953.03
2019-04-05T21:39:39.443Z,94959.94
2019-04-05T21:42:06.138Z,94959.08
2019-04-05T21:44:32.759Z,94960.90
2019-04-05T21:46:59.471Z,94963.52
2019-04-05T21:49:26.200Z,94963.95
2019-04-05T21:51:52.900Z,94967.93
2019-04-05T21:54:19.531Z,94973.47
2019-04-05T21:56:46.520Z,94971.23
2019-04-05T21:59:13.229Z,94969.53
2019-04-05T22:01:40.057Z,94967.05
2019-04-05T22:04:06.682Z,94969.96
2019-04-05T22:06:33.288Z,94968.06
2019-04-05T22:08:59.911Z,94974.12
2019-04-05T22:11:27.779Z,94976.20
2019-04-05T22:14:01.178Z,94979.64
2019-04-05T22:16:27.804Z,94982.77
2019-04-05T22:18:54.495Z,94978.94
2019-04-05T22:21:21.112Z,94984.77
2019-04-05T22:23:47.724Z,94978.05
2019-04-05T22:26:14.432Z,94983.88
2019-04-05T22:28:41.036Z,94982.52
2019-04-05T22:31:07.742Z,94991.82
2019-04-05T22:33:34.428Z,94992.03
2019-04-05T22:36:01.073Z,94984.79
2019-04-05T22:38:27.660Z,94982.92
2019-04-05T22:40:54.278Z,94984.98
2019-04-05T22:43:20.898Z,94981.40
2019-04-05T22:45:47.506Z,94977.28
2019-04-05T22:48:14.220Z,94973.27
2019-04-05T22:50:40.860Z,94981.23
2019-04-05T22:53:07.515Z,94988.67
2019-04-05T22:55:34.129Z,94982.25
2019-04-05T22:58:00.845Z,94986.77
2019-04-05T23:00:27.465Z,94983.06
2019-04-05T23:02:54.264Z,94980.10
2019-04-05T23:05:21.022Z,94975.21
2019-04-05T23:07:47.891Z,94975.69
2019-04-05T23:10:14.519Z,94975.64
2019-04-05T23:12:41.173Z,94975.36
2019-04-05T23:15:07.917Z,94971.84
2019-04-05T23:17:34.578Z,94980.61
2019-04-05T23:20:01.312Z,94985.09
2019-04-05T23:22:27.977Z,94989.58
2019-04-05T23:24:54.609Z,94986.11
2019-04-05T23:27:21.217Z,94985.30
2019-04-05T23:29:47.839Z,94985.02
2019-04-05T23:32:21.763Z,94990.01
2019-04-05T23:34:48.459Z,94993.39
2019-04-05T23:37:15.057Z,95000.30
2019-04-05T23:39:41.682Z,94997.11
2019-04-05T23:42:08.401Z,94993.11
2019-04-05T23:44:35.105Z,94994.59
2019-04-05T23:47:01.743Z,94999.77
2019-04-05T23:49:28.363Z,94997.25
2019-04-05T23:51:55.065Z,94997.47
2019-04-05T23:54:21.691Z,95000.66
2019-04-05T23:56:48.414Z,95000.85
2019-04-05T23:59:15.212Z,94997.00
